Terminal Aerodrome Forecast
Issued by NWS

Home | Current Version | Previous Version | Text Only | Print | Product List | Glossary On
Versions: 1 2 3 4 5 6 7 8 9 10 11 12 13 14 15 16
000
FTUS43 KMQT 201700
TAFIWD
TAF
KIWD 201734Z 2018/2118 34005KT P6SM BKN015
     FM201900 35005KT P6SM BKN020
     FM202100 03005KT P6SM SCT035
     FM210100 00000KT P6SM FEW035 SCT250
     FM210700 13003KT 1SM BR VV005
     FM211400 14007KT P6SM SCT025
      AMD NOT SKED=

USA.gov is the U.S. government's official web portal to all federal, state and local government web resources and services.